createdAt,value
2022-09-03T00:00:41.670Z,100851.88
2022-09-03T00:03:44.849Z,100816.84
2022-09-03T00:06:49.561Z,100845.16
2022-09-03T00:09:47.064Z,100831.00
2022-09-03T00:12:37.198Z,100842.81
2022-09-03T00:15:24.084Z,100827.22
2022-09-03T00:18:14.486Z,100838.81
2022-09-03T00:21:18.957Z,100843.91
2022-09-03T00:24:14.004Z,100827.50
2022-09-03T00:27:01.940Z,100823.13
2022-09-03T00:29:56.673Z,100849.78
2022-09-03T00:32:47.172Z,100835.88
2022-09-03T00:35:37.981Z,100830.06
2022-09-03T00:38:24.177Z,100837.59
2022-09-03T00:41:33.952Z,100827.59
2022-09-03T00:44:50.952Z,100829.22
2022-09-03T00:48:28.229Z,100832.56
2022-09-03T00:52:03.872Z,100838.88
2022-09-03T00:55:22.101Z,100826.44
2022-09-03T00:58:26.950Z,100833.53
2022-09-03T01:02:13.012Z,100830.28
2022-09-03T01:05:08.589Z,100824.88
2022-09-03T01:08:08.731Z,100834.25
2022-09-03T01:10:57.009Z,100838.94
2022-09-03T01:13:50.831Z,100814.47
2022-09-03T01:16:39.937Z,100832.19
2022-09-03T01:20:01.071Z,100832.25
2022-09-03T01:23:00.326Z,100822.19
2022-09-03T01:26:40.171Z,100813.22
2022-09-03T01:29:54.887Z,100818.78
2022-09-03T01:32:56.745Z,100810.75
2022-09-03T01:35:48.938Z,100820.94
2022-09-03T01:38:49.002Z,100813.59
2022-09-03T01:42:07.627Z,100791.88
2022-09-03T01:45:08.476Z,100798.41
2022-09-03T01:48:26.859Z,100805.00
2022-09-03T01:51:28.245Z,100791.75
2022-09-03T01:54:39.782Z,100803.69
2022-09-03T01:58:06.633Z,100807.31
2022-09-03T02:00:59.407Z,100799.91
2022-09-03T02:03:45.923Z,100798.34
2022-09-03T02:06:31.969Z,100784.56
2022-09-03T02:09:18.980Z,100798.19
2022-09-03T02:12:16.756Z,100785.69
2022-09-03T02:15:08.003Z,100808.81
2022-09-03T02:17:57.798Z,100822.00
2022-09-03T02:20:45.115Z,100811.06
2022-09-03T02:23:31.664Z,100798.88
2022-09-03T02:26:23.178Z,100794.25
2022-09-03T02:29:10.187Z,100804.34
2022-09-03T02:31:57.991Z,100773.56
2022-09-03T02:34:44.160Z,100786.16
2022-09-03T02:37:30.080Z,100775.03
2022-09-03T02:40:17.202Z,100805.56
2022-09-03T02:43:06.159Z,100804.22
2022-09-03T02:45:55.284Z,100798.53
2022-09-03T02:48:41.134Z,100796.97
2022-09-03T02:51:27.782Z,100802.97
2022-09-03T02:54:16.705Z,100811.91
2022-09-03T02:57:15.416Z,100801.56
2022-09-03T03:00:09.701Z,100801.03
2022-09-03T03:02:55.985Z,100800.50
2022-09-03T03:05:43.622Z,100807.63
2022-09-03T03:08:30.646Z,100805.47
2022-09-03T03:11:18.594Z,100774.41
2022-09-03T03:14:04.692Z,100785.38
2022-09-03T03:16:51.706Z,100756.56
2022-09-03T03:19:37.638Z,100777.28
2022-09-03T03:22:23.766Z,100804.78
2022-09-03T03:25:09.903Z,100800.97
2022-09-03T03:27:57.094Z,100795.06
2022-09-03T03:30:43.054Z,100778.53
2022-09-03T03:33:29.904Z,100803.00
2022-09-03T03:36:15.936Z,100810.84
2022-09-03T03:39:03.293Z,100778.22
2022-09-03T03:41:53.508Z,100802.94
2022-09-03T03:44:44.347Z,100798.31
2022-09-03T03:47:33.780Z,100803.78
2022-09-03T03:50:24.216Z,100806.84
2022-09-03T03:53:10.287Z,100791.13
2022-09-03T03:55:58.162Z,100791.06
2022-09-03T03:58:44.644Z,100784.59
2022-09-03T04:01:32.667Z,100811.78
2022-09-03T04:04:19.397Z,100784.59
2022-09-03T04:07:07.693Z,100793.31
2022-09-03T04:09:57.181Z,100781.88
2022-09-03T04:12:48.840Z,100802.00
2022-09-03T04:15:39.887Z,100808.28
2022-09-03T04:18:25.951Z,100805.84
2022-09-03T04:21:18.870Z,100803.13
2022-09-03T04:24:06.757Z,100812.97
2022-09-03T04:26:54.038Z,100783.50
2022-09-03T04:29:40.245Z,100813.13
2022-09-03T04:32:44.918Z,100788.84
2022-09-03T04:35:35.960Z,100812.13
2022-09-03T04:38:24.356Z,100812.50
2022-09-03T04:41:14.297Z,100820.63
2022-09-03T04:44:26.848Z,100823.75
2022-09-03T04:47:12.788Z,100819.25
2022-09-03T04:49:58.929Z,100821.63
2022-09-03T04:52:45.100Z,100817.44
2022-09-03T04:55:35.837Z,100832.06
2022-09-03T04:58:21.877Z,100830.81
2022-09-03T05:01:10.040Z,100840.38
2022-09-03T05:03:58.253Z,100835.63
2022-09-03T05:06:49.071Z,100826.16
2022-09-03T05:10:21.005Z,100840.50
2022-09-03T05:13:10.033Z,100847.69
2022-09-03T05:16:07.816Z,100851.31
2022-09-03T05:19:01.757Z,100842.69
2022-09-03T05:21:50.009Z,100832.63
2022-09-03T05:24:36.117Z,100830.91
2022-09-03T05:27:22.671Z,100826.16
2022-09-03T05:30:09.598Z,100816.44
2022-09-03T05:32:58.006Z,100823.44
2022-09-03T05:35:43.986Z,100850.31
2022-09-03T05:38:30.270Z,100851.47
2022-09-03T05:41:19.017Z,100849.06
2022-09-03T05:44:06.120Z,100851.19
2022-09-03T05:46:52.695Z,100824.94
2022-09-03T05:49:38.656Z,100817.16
2022-09-03T05:52:25.223Z,100849.81
2022-09-03T05:55:13.483Z,100840.91
2022-09-03T05:57:59.761Z,100827.94
2022-09-03T06:01:12.919Z,100844.19
2022-09-03T06:04:14.722Z,100840.66
2022-09-03T06:07:06.265Z,100848.97
2022-09-03T06:09:57.161Z,100855.94
2022-09-03T06:12:49.873Z,100839.03
2022-09-03T06:15:36.304Z,100810.94
2022-09-03T06:18:29.247Z,100832.88
2022-09-03T06:21:16.651Z,100827.38
2022-09-03T06:24:06.294Z,100834.50
2022-09-03T06:26:57.852Z,100845.19
2022-09-03T06:29:47.338Z,100841.56
2022-09-03T06:32:43.807Z,100845.88
2022-09-03T06:35:42.878Z,100846.41
2022-09-03T06:38:37.615Z,100844.50
2022-09-03T06:41:25.863Z,100829.28
2022-09-03T06:44:12.690Z,100827.97
2022-09-03T06:47:01.596Z,100857.53
2022-09-03T06:49:47.982Z,100854.94
2022-09-03T06:52:33.949Z,100836.44
2022-09-03T06:55:23.763Z,100859.34
2022-09-03T06:58:10.898Z,100848.59
2022-09-03T07:01:09.535Z,100848.31
2022-09-03T07:04:03.538Z,100841.63
2022-09-03T07:06:49.451Z,100823.75
2022-09-03T07:09:38.367Z,100845.50
2022-09-03T07:12:24.614Z,100825.22
2022-09-03T07:15:10.750Z,100837.41
2022-09-03T07:17:58.437Z,100825.22
2022-09-03T07:20:44.366Z,100821.59
2022-09-03T07:23:31.555Z,100807.25
2022-09-03T07:26:21.881Z,100846.06
2022-09-03T07:29:08.339Z,100828.09
2022-09-03T07:31:58.439Z,100860.38
2022-09-03T07:34:59.677Z,100859.91
2022-09-03T07:37:47.628Z,100836.94
2022-09-03T07:40:34.373Z,100836.75
2022-09-03T07:43:23.765Z,100864.44
2022-09-03T07:46:15.471Z,100866.13
2022-09-03T07:49:05.526Z,100865.72
2022-09-03T07:51:54.446Z,100857.97
2022-09-03T07:54:41.400Z,100843.78
2022-09-03T07:57:27.109Z,100860.53
2022-09-03T08:00:13.572Z,100861.06
2022-09-03T08:03:06.501Z,100880.47
2022-09-03T08:05:53.062Z,100863.41
2022-09-03T08:08:41.633Z,100847.53
2022-09-03T08:11:28.761Z,100850.25
2022-09-03T08:14:15.221Z,100867.25
2022-09-03T08:17:08.210Z,100871.34
2022-09-03T08:19:57.500Z,100871.28
2022-09-03T08:22:44.379Z,100863.53
2022-09-03T08:25:35.166Z,100867.13
2022-09-03T08:28:24.007Z,100863.66
2022-09-03T08:31:20.717Z,100864.09
2022-09-03T08:34:07.518Z,100838.78
2022-09-03T08:36:56.344Z,100853.97
2022-09-03T08:39:48.944Z,100863.22
2022-09-03T08:42:48.230Z,100866.69
2022-09-03T08:45:36.491Z,100844.84
2022-09-03T08:48:26.024Z,100858.47
2022-09-03T08:51:12.409Z,100839.94
2022-09-03T08:54:00.541Z,100856.53
2022-09-03T08:56:56.255Z,100845.53
2022-09-03T09:01:04.356Z,100846.84
2022-09-03T09:04:15.015Z,100850.44
2022-09-03T09:07:14.481Z,100834.47
2022-09-03T09:10:14.478Z,100843.81
2022-09-03T09:13:25.861Z,100845.91
2022-09-03T09:16:23.807Z,100818.88
2022-09-03T09:19:12.409Z,100843.72
2022-09-03T09:22:27.755Z,100838.53
2022-09-03T09:25:24.397Z,100817.25
2022-09-03T09:28:22.256Z,100831.44
2022-09-03T09:31:13.094Z,100836.34
2022-09-03T09:34:08.132Z,100831.06
2022-09-03T09:36:56.307Z,100833.94
2022-09-03T09:39:55.523Z,100830.28
2022-09-03T09:42:41.676Z,100814.84
2022-09-03T09:45:35.287Z,100827.97
2022-09-03T09:48:32.209Z,100829.69
2022-09-03T09:51:27.668Z,100829.03
2022-09-03T09:54:24.896Z,100822.13
2022-09-03T09:57:18.601Z,100823.59
2022-09-03T10:00:14.532Z,100799.78
2022-09-03T10:03:02.051Z,100827.06
2022-09-03T10:06:00.905Z,100805.19
2022-09-03T10:08:48.379Z,100818.72
2022-09-03T10:11:40.570Z,100817.22
2022-09-03T10:14:35.416Z,100819.28
2022-09-03T10:17:36.781Z,100817.19
2022-09-03T10:20:34.144Z,100796.09
2022-09-03T10:23:20.349Z,100814.56
2022-09-03T10:26:10.382Z,100817.63
2022-09-03T10:29:01.699Z,100814.94
2022-09-03T10:32:39.117Z,100812.25
2022-09-03T10:35:31.283Z,100815.69
2022-09-03T10:38:36.225Z,100803.94
2022-09-03T10:41:38.437Z,100802.59
2022-09-03T10:44:37.148Z,100777.56
2022-09-03T10:47:42.054Z,100788.16
2022-09-03T10:51:07.035Z,100794.03
2022-09-03T10:54:40.356Z,100798.69
2022-09-03T10:57:57.242Z,100784.56
2022-09-03T11:01:59.926Z,100789.00
2022-09-03T11:05:15.133Z,100772.06
2022-09-03T11:08:19.133Z,100730.72
2022-09-03T11:11:13.831Z,100745.34
2022-09-03T11:14:11.038Z,100766.31
2022-09-03T11:17:15.837Z,100778.59
2022-09-03T11:20:31.026Z,100779.31
2022-09-03T11:23:20.497Z,100762.84
2022-09-03T11:26:09.575Z,100772.97
2022-09-03T11:29:04.858Z,100766.84
2022-09-03T11:32:16.344Z,100761.22
2022-09-03T11:35:14.407Z,100744.16
2022-09-03T11:38:21.569Z,100752.84
2022-09-03T11:41:16.187Z,100766.94
2022-09-03T11:44:20.877Z,100748.63
2022-09-03T11:47:20.288Z,100750.25
2022-09-03T11:50:20.691Z,100744.63
2022-09-03T11:53:11.680Z,100730.44
2022-09-03T11:56:14.585Z,100732.59
2022-09-03T11:59:15.297Z,100711.75
2022-09-03T12:02:31.194Z,100754.81
2022-09-03T12:05:42.992Z,100740.56
2022-09-03T12:08:44.120Z,100740.81
2022-09-03T12:11:52.108Z,100735.09
2022-09-03T12:15:00.317Z,100729.44
2022-09-03T12:18:17.104Z,100722.34
2022-09-03T12:21:06.734Z,100697.22
2022-09-03T12:23:58.185Z,100713.53
2022-09-03T12:26:44.927Z,100709.56
2022-09-03T12:29:31.846Z,100706.38
2022-09-03T12:32:18.916Z,100701.63
2022-09-03T12:41:26.945Z,100679.81
2022-09-03T12:44:13.477Z,100673.25
2022-09-03T12:47:36.883Z,100674.16
2022-09-03T12:50:24.826Z,100686.81
2022-09-03T12:53:14.016Z,100694.16
2022-09-03T12:56:01.565Z,100650.97
2022-09-03T12:58:59.956Z,100690.94
2022-09-03T13:01:52.142Z,100640.25
2022-09-03T13:04:40.052Z,100674.13
2022-09-03T13:07:27.982Z,100688.56
2022-09-03T13:10:25.582Z,100687.53
2022-09-03T13:13:20.345Z,100664.09
2022-09-03T13:16:09.147Z,100687.31
2022-09-03T13:19:05.916Z,100674.06
2022-09-03T13:22:12.787Z,100668.41
2022-09-03T13:25:41.409Z,100675.59
2022-09-03T13:29:08.658Z,100670.63
2022-09-03T13:32:17.669Z,100652.88
2022-09-03T13:35:15.792Z,100687.59
2022-09-03T13:38:39.851Z,100670.41
2022-09-03T13:41:38.905Z,100652.97
2022-09-03T13:44:32.987Z,100608.34
2022-09-03T13:48:04.893Z,100667.53
2022-09-03T13:50:59.693Z,100647.91
2022-09-03T13:53:58.060Z,100664.19
2022-09-03T13:56:59.719Z,100658.88
2022-09-03T13:59:51.789Z,100659.13
2022-09-03T14:02:57.985Z,100664.25
2022-09-03T14:06:03.693Z,100673.97
2022-09-03T14:09:07.274Z,100661.03
2022-09-03T14:11:58.899Z,100664.88
2022-09-03T14:15:02.727Z,100665.69
2022-09-03T14:17:56.920Z,100642.47
2022-09-03T14:21:09.951Z,100662.84
2022-09-03T14:24:07.823Z,100651.13
2022-09-03T14:26:56.561Z,100646.25
2022-09-03T14:29:52.923Z,100655.13
2022-09-03T14:32:54.028Z,100654.50
2022-09-03T14:35:58.060Z,100616.94
2022-09-03T14:39:00.880Z,100654.59
2022-09-03T14:42:00.543Z,100622.41
2022-09-03T14:45:02.696Z,100658.53
2022-09-03T14:47:58.736Z,100657.91
2022-09-03T14:51:04.647Z,100655.66
2022-09-03T14:53:58.533Z,100660.06
2022-09-03T14:57:13.218Z,100659.75
2022-09-03T15:00:10.305Z,100668.25
2022-09-03T15:03:43.489Z,100665.03
2022-09-03T15:06:51.041Z,100619.00
2022-09-03T15:09:42.924Z,100665.53
2022-09-03T15:12:33.833Z,100662.56
2022-09-03T15:15:24.719Z,100661.63
2022-09-03T15:18:20.837Z,100658.66
2022-09-03T15:21:38.227Z,100659.84
2022-09-03T15:24:58.534Z,100670.75
2022-09-03T15:28:39.541Z,100668.41
2022-09-03T15:31:49.051Z,100663.56
2022-09-03T15:35:35.866Z,100662.84
2022-09-03T15:38:33.354Z,100655.66
2022-09-03T15:41:30.313Z,100645.94
2022-09-03T15:44:20.471Z,100646.13
2022-09-03T15:47:51.049Z,100626.97
2022-09-03T15:50:53.624Z,100649.75
2022-09-03T15:53:51.312Z,100649.47
2022-09-03T15:56:45.568Z,100644.91
2022-09-03T15:59:40.578Z,100638.38
2022-09-03T16:02:52.462Z,100628.97
2022-09-03T16:05:43.535Z,100640.25
2022-09-03T16:08:32.626Z,100650.38
2022-09-03T16:11:26.793Z,100648.03
2022-09-03T16:14:22.071Z,100646.53
2022-09-03T16:17:33.215Z,100651.63
2022-09-03T16:20:22.439Z,100613.38
2022-09-03T16:23:47.358Z,100659.16
2022-09-03T16:26:37.598Z,100653.44
2022-09-03T16:29:28.525Z,100643.50
2022-09-03T16:32:23.607Z,100624.91
2022-09-03T16:35:12.705Z,100642.84
2022-09-03T16:38:09.844Z,100615.19
2022-09-03T16:41:16.452Z,100657.78
2022-09-03T16:44:18.360Z,100662.00
2022-09-03T16:47:30.453Z,100665.38
2022-09-03T16:50:58.109Z,100659.19
2022-09-03T16:54:03.413Z,100652.97
2022-09-03T16:56:56.593Z,100649.91
2022-09-03T17:00:23.796Z,100654.78
2022-09-03T17:03:13.415Z,100651.81
2022-09-03T17:06:43.568Z,100618.38
2022-09-03T17:09:39.709Z,100666.56
2022-09-03T17:12:34.498Z,100665.09
2022-09-03T17:15:34.655Z,100660.00
2022-09-03T17:18:30.355Z,100660.13
2022-09-03T17:21:57.459Z,100645.00
2022-09-03T17:24:50.870Z,100635.22
2022-09-03T17:27:52.465Z,100665.59
2022-09-03T17:30:58.250Z,100671.72
2022-09-03T17:34:22.393Z,100669.88
2022-09-03T17:37:17.508Z,100645.38
2022-09-03T17:40:13.044Z,100642.59
2022-09-03T17:43:25.026Z,100676.66
2022-09-03T17:46:35.791Z,100681.06
2022-09-03T17:49:24.817Z,100682.91
2022-09-03T17:52:28.028Z,100668.84
2022-09-03T17:55:32.392Z,100684.78
2022-09-03T17:58:26.935Z,100695.25
2022-09-03T18:01:20.314Z,100652.47
2022-09-03T18:04:28.985Z,100698.34
2022-09-03T18:07:29.447Z,100671.25
2022-09-03T18:10:33.361Z,100701.06
2022-09-03T18:13:43.984Z,100678.13
2022-09-03T18:16:32.948Z,100682.06
2022-09-03T18:19:58.152Z,100665.59
2022-09-03T18:23:29.187Z,100695.63
2022-09-03T18:26:47.774Z,100670.81
2022-09-03T18:30:02.296Z,100713.78
2022-09-03T18:33:07.242Z,100718.38
2022-09-03T18:36:11.522Z,100709.25
2022-09-03T18:39:45.501Z,100720.31
2022-09-03T18:43:17.394Z,100704.13
2022-09-03T18:50:46.738Z,100734.03
2022-09-03T18:54:12.008Z,100688.72
2022-09-03T18:57:17.482Z,100705.91
2022-09-03T19:00:34.226Z,100739.81
2022-09-03T19:04:13.421Z,100733.53
2022-09-03T19:07:27.912Z,100732.44
2022-09-03T19:10:41.574Z,100734.41
2022-09-03T19:13:52.226Z,100735.72
2022-09-03T19:17:06.217Z,100730.34
2022-09-03T19:20:55.867Z,100725.66
2022-09-03T19:24:01.065Z,100723.78
2022-09-03T19:27:51.801Z,100720.22
2022-09-03T19:31:07.670Z,100695.22
2022-09-03T19:34:25.152Z,100744.25
2022-09-03T19:37:40.857Z,100755.63
2022-09-03T19:40:58.056Z,100720.84
2022-09-03T19:44:11.884Z,100707.88
2022-09-03T19:47:21.987Z,100709.31
2022-09-03T19:50:40.993Z,100702.53
2022-09-03T19:53:46.298Z,100751.03
2022-09-03T19:56:52.930Z,100719.88
2022-09-03T20:00:00.818Z,100759.81
2022-09-03T20:03:07.823Z,100757.81
2022-09-03T20:06:12.848Z,100770.81
2022-09-03T20:09:27.822Z,100758.63
2022-09-03T20:12:13.973Z,100774.19
2022-09-03T20:15:02.335Z,100716.72
2022-09-03T20:17:51.270Z,100777.59
2022-09-03T20:20:48.910Z,100776.59
2022-09-03T20:23:49.785Z,100745.28
2022-09-03T20:27:03.758Z,100777.91
2022-09-03T20:29:59.889Z,100786.31
2022-09-03T20:33:07.701Z,100787.75
2022-09-03T20:35:56.883Z,100787.25
2022-09-03T20:39:22.709Z,100797.78
2022-09-03T20:42:14.880Z,100792.13
2022-09-03T20:45:05.862Z,100791.63
2022-09-03T20:48:05.681Z,100769.19
2022-09-03T20:51:01.948Z,100771.16
2022-09-03T20:53:49.613Z,100785.91
2022-09-03T20:56:35.851Z,100798.38
2022-09-03T21:00:00.998Z,100792.50
2022-09-03T21:03:08.965Z,100802.72
2022-09-03T21:06:08.128Z,100772.66
2022-09-03T21:09:08.958Z,100750.03
2022-09-03T21:12:12.676Z,100792.72
2022-09-03T21:15:17.679Z,100784.41
2022-09-03T21:18:32.731Z,100793.06
2022-09-03T21:21:23.889Z,100796.72
2022-09-03T21:24:17.554Z,100791.22
2022-09-03T21:27:38.719Z,100799.81
2022-09-03T21:30:24.323Z,100797.34
2022-09-03T21:33:15.827Z,100768.91
2022-09-03T21:36:07.862Z,100792.47
2022-09-03T21:38:59.837Z,100796.06
2022-09-03T21:41:55.360Z,100794.72
2022-09-03T21:44:41.007Z,100794.72
2022-09-03T21:47:28.400Z,100751.16
2022-09-03T21:50:21.996Z,100791.63
2022-09-03T21:53:26.647Z,100776.66
2022-09-03T21:56:23.515Z,100799.56
2022-09-03T21:59:19.642Z,100806.06
2022-09-03T22:02:24.428Z,100805.25
2022-09-03T22:05:10.085Z,100781.88
2022-09-03T22:08:05.071Z,100801.38
2022-09-03T22:11:20.089Z,100804.13
2022-09-03T22:14:16.055Z,100790.28
2022-09-03T22:17:16.806Z,100797.63
2022-09-03T22:20:05.125Z,100766.91
2022-09-03T22:22:57.828Z,100810.75
2022-09-03T22:26:10.121Z,100811.09
2022-09-03T22:29:12.496Z,100794.66
2022-09-03T22:32:27.544Z,100799.03
2022-09-03T22:35:48.752Z,100811.88
2022-09-03T22:39:12.477Z,100808.34
2022-09-03T22:42:37.715Z,100803.63
2022-09-03T22:45:56.952Z,100749.50
2022-09-03T22:49:24.573Z,100798.44
2022-09-03T22:52:32.090Z,100798.44
2022-09-03T22:55:26.110Z,100782.63
2022-09-03T22:58:17.853Z,100797.88
2022-09-03T23:01:12.728Z,100790.75
2022-09-03T23:04:29.976Z,100796.44
2022-09-03T23:07:37.740Z,100814.22
2022-09-03T23:10:31.509Z,100781.38
2022-09-03T23:13:21.422Z,100796.69
2022-09-03T23:16:25.543Z,100802.38
2022-09-03T23:22:03.978Z,100776.16
2022-09-03T23:25:05.562Z,100779.25
2022-09-03T23:27:58.860Z,100805.75
2022-09-03T23:30:44.961Z,100788.00
2022-09-03T23:33:30.917Z,100800.19
2022-09-03T23:36:36.751Z,100809.25
2022-09-03T23:39:50.017Z,100805.81
2022-09-03T23:43:03.522Z,100808.69
2022-09-03T23:46:00.574Z,100807.53
2022-09-03T23:48:58.482Z,100787.72
2022-09-03T23:52:20.805Z,100821.22
2022-09-03T23:55:42.650Z,100819.41
2022-09-03T23:58:55.606Z,100818.69
